Forside
METAR-TAF:

METAR-TAF

Lufthavne :

Merrill Municipal Airport

Merrill, Wisconsin, USA

Breddekreds: 45-11N, længdekreds: 089-42W, højde: 401 m

Aktuelle vejr

Denne rapport blev lavet for 20 minutter siden, kl. 12:15 UTC
Vind 6 kt fra sydøst
Temperatur -1°C
Fugtighed 80%
Tryk 1021 hPa
Sigt: 16.1 km
Spredte skyer i en højde af 1800 ft
Brudte skyer i en højde af 2500 ft
Overskyet i en højde af 3000 ft

METAR: KRRL 241215Z AUTO 14006KT 10SM SCT018 BKN025 OVC030 M01/M04 A3015 RMK AO2 T10121036 TSNO

Tid: 06:35 (12:35 UTC)


TAF: fraværende

Vejrobservationer og prognoser fra mere end 4000 lufthavne (METAR og TAF).

De gule og røde prikker repræsenterer de meteorologiske stationer.

Flyt musen over at se navnet på stationen.

Så klik over at se vejr observationer og prognoser.

At skifte det kort: Klik på de grønne knapper med et sort kors for at zoome ind; på den grønne knap med en bindestreg for at zoome ud; eller på de grønne pile for tilstødende kort.


METAR-TAF: